Database: COMPET-N - COOP - 3PL - 4PL - CNDOOM

WAD: Doom | Doom 2 | TNT | Plutonia | AV | HR | Scythe | MM | MM2 | Requiem | CE
Category: speed | nmare | max | nm100s | tyson | pacifist | fast | respawn | nomo | misc | built | all
Highscore: ALL | IWAD | PWAD | Country | Continent

Remove: wad | map | category | player | all
MapPlayerTimeDateFilenameCommentsDL
MAP03: InterlockVdgg 2:29.172016-07-04mm03t229.zip - 290
MAP03: InterlockVdgg 2:45.742016-07-02mm03t245.zip - 239
MAP03: InterlockVdgg 2:51.112015-12-07mm03t251.zip - 172
MAP01: The TeleporterVdgg 2:57.112015-03-11mm01t257.zip - 756
MAP03: InterlockVdgg 3:07.742015-11-05mm03t307.zip - 163
MAP01: The TeleporterVdgg 3:30.142015-03-11mm01t330.zip - 306
MAP01: The TeleporterVdgg 3:43.342015-03-10mm01t343.zip - 329
MAP03: InterlockVdgg 3:51.002010-06-12mm03t351.zip - 171
MAP30: NevermoreVdgg 4:20.002012-11-02rt30-420.zip - 212
MAP32: Dances with DemonsVdgg 7:25.002011-08-26m232t725.zip - 201
MAP02: Well of SoulsVdgg 9:27.032017-12-16pt02-927.zip - 338
MAP32: Dances with DemonsVdgg 10:29.002011-01-13m2321029.zip - 151
MAP11: Rats in the WallsVdgg 10:42.002011-06-24rt111042.zip - 186
MAP02: Well of SoulsVdgg 11:41.002014-06-30pt021141.zip - 232
MAP20: Mountain DepotVdgg 12:17.942016-07-02mm201217.zip - 254
MAP32: Dances with DemonsVdgg 12:24.002010-10-07m2321224.zip - 135
MAP07: FrustrationVdgg 13:37.002013-10-06m2071337.zip - 180
MAP10: The MansionVdgg 17:00.002009-11-10mm101700.zip - 204
MAP32: Dances with DemonsVdgg 17:08.002010-01-17m2321708.zip - 142
MAP07: FrustrationVdgg 17:42.002009-07-30m2071742.zip - 154
MAP20: Mountain DepotVdgg 18:15.002013-10-04mm201815.zip - 156
MAP11: Sewer ShutdownVdgg 21:49.002009-06-30m2112149.zip - 193
MAP07: FrustrationVdgg 23:07.002009-06-18m2072307.zip - 913
MAP17: House of ThornVdgg 23:17.002012-07-26mm172317.zip - 186
MAP24: Procrustes ChambersVdgg 23:45.602015-07-12rt242345.zip - 203
MAP03: ...And Hell BeneathVdgg 27:43.002011-01-26m2032743.zip - 212
MAP05: Rites of PassageVdgg 27:51.002013-10-13m2052751.zip - 221
MAP08: StigmataVdgg 28:25.002011-11-08m2082825.zip - 216
MAP27: Fort HadesVdgg 29:37.002009-11-14mm272937.zip - 205
MAP18: RegulateVdgg 32:47.002009-08-11m2183247.zip - 188
MAP13: Devils ParadiseVdgg 33:44.002011-10-18m2133344.zip - 154
MAP12: The WaterwayVdgg 34:01.002009-06-25m2123401.zip - 176
MAP17: Dens of IniquityVdgg 34:14.002011-11-10rt173414.zip - 190
MAP06: nataS ot etubirTVdgg 37:46.002010-07-01rt063746.zip - 192
MAP09: High-Tech GraveVdgg 38:54.002012-02-02mm093854.zip - 211
MAP06: TrappedVdgg 39:42.002012-11-23m2063942.zip - 183
MAP13: The Inmost Dens IIVdgg 40:42.002011-07-18mm134042.zip - 225
MAP09: Sabbath SewerVdgg 41:13.002009-11-03m2094113.zip - 200
MAP29: Kings of MetalVdgg 41:57.002012-11-25m2294157.zip - 208
MAP17: No OneVdgg 42:33.002011-01-16m2174233.zip - 227
MAP26: BunkerVdgg 47:43.002012-05-12pt264743.zip - 230
MAP14: A Question of TimeVdgg 48:05.002011-01-28m2144805.zip - 205
MAP24: Io LabVdgg 48:41.832016-07-06m2244841.zip - 643
MAP23: No Way OutVdgg 51:33.802015-06-22m2235133.zip - 239
Remove: wad | map | category | player | all